sensor_id;sensor_type;location;lat;lon;timestamp;temperature;humidity
20856;DHT22;63058;49.424;8.420;2022-10-16T00:02:14;19.60;99.90
20856;DHT22;63058;49.424;8.420;2022-10-16T00:04:43;19.50;99.90
20856;DHT22;63058;49.424;8.420;2022-10-16T00:07:09;19.40;99.90
20856;DHT22;63058;49.424;8.420;2022-10-16T00:09:38;19.40;99.90
20856;DHT22;63058;49.424;8.420;2022-10-16T00:12:21;19.40;99.90
20856;DHT22;63058;49.424;8.420;2022-10-16T00:14:48;19.50;99.90
20856;DHT22;63058;49.424;8.420;2022-10-16T00:17:13;19.50;99.90
20856;DHT22;63058;49.424;8.420;2022-10-16T00:19:46;19.40;99.90
20856;DHT22;63058;49.424;8.420;2022-10-16T00:22:14;19.40;99.90
20856;DHT22;63058;49.424;8.420;2022-10-16T00:24:52;19.50;99.90
20856;DHT22;63058;49.424;8.420;2022-10-16T00:27:21;19.50;99.90
20856;DHT22;63058;49.424;8.420;2022-10-16T00:30:07;19.40;99.90
20856;DHT22;63058;49.424;8.420;2022-10-16T00:32:40;19.40;99.90
20856;DHT22;63058;49.424;8.420;2022-10-16T00:35:17;19.40;99.90
20856;DHT22;63058;49.424;8.420;2022-10-16T00:37:53;19.30;99.90
20856;DHT22;63058;49.424;8.420;2022-10-16T00:40:22;19.50;99.90
20856;DHT22;63058;49.424;8.420;2022-10-16T00:42:51;19.20;99.90
20856;DHT22;63058;49.424;8.420;2022-10-16T00:45:23;19.40;99.90
20856;DHT22;63058;49.424;8.420;2022-10-16T00:47:56;19.20;99.90
20856;DHT22;63058;49.424;8.420;2022-10-16T00:50:33;19.40;99.90
20856;DHT22;63058;49.424;8.420;2022-10-16T00:53:02;19.30;99.90
20856;DHT22;63058;49.424;8.420;2022-10-16T00:55:34;19.30;99.90
20856;DHT22;63058;49.424;8.420;2022-10-16T00:58:01;19.30;99.90
20856;DHT22;63058;49.424;8.420;2022-10-16T01:00:28;19.30;99.90
20856;DHT22;63058;49.424;8.420;2022-10-16T01:03:02;19.40;99.90
20856;DHT22;63058;49.424;8.420;2022-10-16T01:06:18;19.40;99.90
20856;DHT22;63058;49.424;8.420;2022-10-16T01:15:44;19.40;99.90
20856;DHT22;63058;49.424;8.420;2022-10-16T01:21:31;19.40;99.90
20856;DHT22;63058;49.424;8.420;2022-10-16T01:27:17;19.30;99.90
20856;DHT22;63058;49.424;8.420;2022-10-16T01:32:59;19.30;99.90
20856;DHT22;63058;49.424;8.420;2022-10-16T01:35:30;19.40;99.90
20856;DHT22;63058;49.424;8.420;2022-10-16T01:40:46;19.50;99.90
20856;DHT22;63058;49.424;8.420;2022-10-16T01:43:35;19.40;99.90
20856;DHT22;63058;49.424;8.420;2022-10-16T01:46:18;19.40;99.90
20856;DHT22;63058;49.424;8.420;2022-10-16T01:48:50;19.40;99.90
20856;DHT22;63058;49.424;8.420;2022-10-16T01:51:24;19.30;99.90
20856;DHT22;63058;49.424;8.420;2022-10-16T01:53:55;19.40;99.90
20856;DHT22;63058;49.424;8.420;2022-10-16T01:56:26;19.50;99.90
20856;DHT22;63058;49.424;8.420;2022-10-16T01:59:05;19.40;99.90
20856;DHT22;63058;49.424;8.420;2022-10-16T02:01:44;19.40;99.90
20856;DHT22;63058;49.424;8.420;2022-10-16T02:04:44;19.40;99.90
20856;DHT22;63058;49.424;8.420;2022-10-16T02:07:13;19.40;99.90
20856;DHT22;63058;49.424;8.420;2022-10-16T02:09:40;19.40;99.90
20856;DHT22;63058;49.424;8.420;2022-10-16T02:12:24;19.30;99.90
20856;DHT22;63058;49.424;8.420;2022-10-16T02:14:53;19.30;99.90
20856;DHT22;63058;49.424;8.420;2022-10-16T02:17:20;19.30;99.90
20856;DHT22;63058;49.424;8.420;2022-10-16T02:19:55;19.30;99.90
20856;DHT22;63058;49.424;8.420;2022-10-16T02:22:45;19.20;99.90
20856;DHT22;63058;49.424;8.420;2022-10-16T02:25:25;19.30;99.90
20856;DHT22;63058;49.424;8.420;2022-10-16T02:28:15;19.30;99.90
20856;DHT22;63058;49.424;8.420;2022-10-16T02:31:08;19.20;99.90
20856;DHT22;63058;49.424;8.420;2022-10-16T02:33:39;19.30;99.90
20856;DHT22;63058;49.424;8.420;2022-10-16T02:36:17;19.30;99.90
20856;DHT22;63058;49.424;8.420;2022-10-16T02:38:49;19.20;99.90
20856;DHT22;63058;49.424;8.420;2022-10-16T02:41:20;19.40;99.90
20856;DHT22;63058;49.424;8.420;2022-10-16T02:43:51;19.30;99.90
20856;DHT22;63058;49.424;8.420;2022-10-16T02:46:21;19.10;99.90
20856;DHT22;63058;49.424;8.420;2022-10-16T02:49:02;19.20;99.90
20856;DHT22;63058;49.424;8.420;2022-10-16T02:51:47;19.20;99.90
20856;DHT22;63058;49.424;8.420;2022-10-16T02:54:14;19.20;99.90
20856;DHT22;63058;49.424;8.420;2022-10-16T02:56:40;19.20;99.90
20856;DHT22;63058;49.424;8.420;2022-10-16T02:59:16;19.20;99.90
20856;DHT22;63058;49.424;8.420;2022-10-16T03:01:45;19.20;99.90
20856;DHT22;63058;49.424;8.420;2022-10-16T03:04:10;19.20;99.90
20856;DHT22;63058;49.424;8.420;2022-10-16T03:06:37;19.20;99.90
20856;DHT22;63058;49.424;8.420;2022-10-16T03:09:07;19.40;99.90
20856;DHT22;63058;49.424;8.420;2022-10-16T03:11:36;19.20;99.90
20856;DHT22;63058;49.424;8.420;2022-10-16T03:14:08;19.10;99.90
20856;DHT22;63058;49.424;8.420;2022-10-16T03:16:38;19.20;99.90
20856;DHT22;63058;49.424;8.420;2022-10-16T03:19:06;19.30;99.90
20856;DHT22;63058;49.424;8.420;2022-10-16T03:21:37;19.20;99.90
20856;DHT22;63058;49.424;8.420;2022-10-16T03:24:06;19.30;99.90
20856;DHT22;63058;49.424;8.420;2022-10-16T03:26:35;19.20;99.90
20856;DHT22;63058;49.424;8.420;2022-10-16T03:29:04;19.20;99.90
20856;DHT22;63058;49.424;8.420;2022-10-16T03:31:32;19.20;99.90
20856;DHT22;63058;49.424;8.420;2022-10-16T03:34:01;19.20;99.90
20856;DHT22;63058;49.424;8.420;2022-10-16T03:36:27;19.30;99.90
20856;DHT22;63058;49.424;8.420;2022-10-16T03:38:54;19.20;99.90
20856;DHT22;63058;49.424;8.420;2022-10-16T03:41:25;19.20;99.90
20856;DHT22;63058;49.424;8.420;2022-10-16T03:43:54;19.20;99.90
20856;DHT22;63058;49.424;8.420;2022-10-16T03:46:20;19.20;99.90
20856;DHT22;63058;49.424;8.420;2022-10-16T03:48:51;19.20;99.90
20856;DHT22;63058;49.424;8.420;2022-10-16T03:51:19;19.20;99.90
20856;DHT22;63058;49.424;8.420;2022-10-16T03:53:59;19.30;99.90
20856;DHT22;63058;49.424;8.420;2022-10-16T03:56:37;19.20;99.90
20856;DHT22;63058;49.424;8.420;2022-10-16T03:59:11;19.20;99.90
20856;DHT22;63058;49.424;8.420;2022-10-16T04:01:47;19.20;99.90
20856;DHT22;63058;49.424;8.420;2022-10-16T04:04:15;19.20;99.90
20856;DHT22;63058;49.424;8.420;2022-10-16T04:06:46;19.20;99.90
20856;DHT22;63058;49.424;8.420;2022-10-16T04:09:21;19.20;99.90
20856;DHT22;63058;49.424;8.420;2022-10-16T04:11:50;19.20;99.90
20856;DHT22;63058;49.424;8.420;2022-10-16T04:14:18;19.30;99.90
20856;DHT22;63058;49.424;8.420;2022-10-16T04:16:47;19.30;99.90
20856;DHT22;63058;49.424;8.420;2022-10-16T04:19:18;19.30;99.90
20856;DHT22;63058;49.424;8.420;2022-10-16T04:21:44;19.30;99.90
20856;DHT22;63058;49.424;8.420;2022-10-16T04:24:10;19.30;99.90
20856;DHT22;63058;49.424;8.420;2022-10-16T04:26:37;19.30;99.90
20856;DHT22;63058;49.424;8.420;2022-10-16T04:29:04;19.30;99.90
20856;DHT22;63058;49.424;8.420;2022-10-16T04:31:30;19.20;99.90
20856;DHT22;63058;49.424;8.420;2022-10-16T04:33:57;19.30;99.90
20856;DHT22;63058;49.424;8.420;2022-10-16T04:36:24;19.40;99.90
20856;DHT22;63058;49.424;8.420;2022-10-16T04:38:58;19.30;99.90
20856;DHT22;63058;49.424;8.420;2022-10-16T04:41:27;19.20;99.90
20856;DHT22;63058;49.424;8.420;2022-10-16T04:43:54;19.30;99.90
20856;DHT22;63058;49.424;8.420;2022-10-16T04:46:23;19.30;99.90
20856;DHT22;63058;49.424;8.420;2022-10-16T04:48:49;19.20;99.90
20856;DHT22;63058;49.424;8.420;2022-10-16T04:51:15;19.20;99.90
20856;DHT22;63058;49.424;8.420;2022-10-16T04:53:41;19.40;99.90
20856;DHT22;63058;49.424;8.420;2022-10-16T04:56:07;19.20;99.90
20856;DHT22;63058;49.424;8.420;2022-10-16T04:58:35;19.00;99.90
20856;DHT22;63058;49.424;8.420;2022-10-16T05:01:07;19.20;99.90
20856;DHT22;63058;49.424;8.420;2022-10-16T05:03:34;19.20;99.90
20856;DHT22;63058;49.424;8.420;2022-10-16T05:06:04;19.10;99.90
20856;DHT22;63058;49.424;8.420;2022-10-16T05:08:33;19.00;99.90
20856;DHT22;63058;49.424;8.420;2022-10-16T05:10:59;19.00;99.90
20856;DHT22;63058;49.424;8.420;2022-10-16T05:13:27;19.00;99.90
20856;DHT22;63058;49.424;8.420;2022-10-16T05:16:06;19.00;99.90
20856;DHT22;63058;49.424;8.420;2022-10-16T05:18:36;19.00;99.90
20856;DHT22;63058;49.424;8.420;2022-10-16T05:21:06;19.00;99.90
20856;DHT22;63058;49.424;8.420;2022-10-16T05:23:35;19.00;99.90
20856;DHT22;63058;49.424;8.420;2022-10-16T05:26:04;18.90;99.90
20856;DHT22;63058;49.424;8.420;2022-10-16T05:28:31;19.00;99.90
20856;DHT22;63058;49.424;8.420;2022-10-16T05:31:09;19.10;99.90
20856;DHT22;63058;49.424;8.420;2022-10-16T05:33:40;18.90;99.90
20856;DHT22;63058;49.424;8.420;2022-10-16T05:36:14;18.90;99.90
20856;DHT22;63058;49.424;8.420;2022-10-16T05:38:41;19.00;99.90
20856;DHT22;63058;49.424;8.420;2022-10-16T05:41:10;18.90;99.90
20856;DHT22;63058;49.424;8.420;2022-10-16T05:43:36;18.90;99.90
20856;DHT22;63058;49.424;8.420;2022-10-16T05:46:04;19.00;99.90
20856;DHT22;63058;49.424;8.420;2022-10-16T05:48:33;19.00;99.90
20856;DHT22;63058;49.424;8.420;2022-10-16T05:51:05;18.90;99.90
20856;DHT22;63058;49.424;8.420;2022-10-16T05:53:38;18.90;99.90
20856;DHT22;63058;49.424;8.420;2022-10-16T05:56:05;19.00;99.90
20856;DHT22;63058;49.424;8.420;2022-10-16T05:58:52;19.00;99.90
20856;DHT22;63058;49.424;8.420;2022-10-16T06:01:43;18.90;99.90
20856;DHT22;63058;49.424;8.420;2022-10-16T06:07:23;18.90;99.90
20856;DHT22;63058;49.424;8.420;2022-10-16T06:13:02;18.90;99.90
20856;DHT22;63058;49.424;8.420;2022-10-16T06:15:31;18.80;99.90
20856;DHT22;63058;49.424;8.420;2022-10-16T06:18:12;18.80;99.90
20856;DHT22;63058;49.424;8.420;2022-10-16T06:20:41;18.80;99.90
20856;DHT22;63058;49.424;8.420;2022-10-16T06:23:28;19.00;99.90
20856;DHT22;63058;49.424;8.420;2022-10-16T06:29:35;18.80;99.90
20856;DHT22;63058;49.424;8.420;2022-10-16T06:32:25;18.90;99.90
20856;DHT22;63058;49.424;8.420;2022-10-16T06:34:56;18.90;99.90
20856;DHT22;63058;49.424;8.420;2022-10-16T06:37:35;18.80;99.90
20856;DHT22;63058;49.424;8.420;2022-10-16T06:40:27;18.90;99.90
20856;DHT22;63058;49.424;8.420;2022-10-16T06:43:03;18.90;99.90
20856;DHT22;63058;49.424;8.420;2022-10-16T06:46:22;18.90;99.90
20856;DHT22;63058;49.424;8.420;2022-10-16T06:48:33;18.90;99.90
20856;DHT22;63058;49.424;8.420;2022-10-16T06:54:54;19.00;99.90
20856;DHT22;63058;49.424;8.420;2022-10-16T06:58:19;19.00;99.90
20856;DHT22;63058;49.424;8.420;2022-10-16T07:01:20;19.00;99.90
20856;DHT22;63058;49.424;8.420;2022-10-16T07:04:28;19.00;99.90
20856;DHT22;63058;49.424;8.420;2022-10-16T07:07:28;19.00;99.90
20856;DHT22;63058;49.424;8.420;2022-10-16T07:10:21;19.10;99.90
20856;DHT22;63058;49.424;8.420;2022-10-16T07:13:47;19.10;99.90
20856;DHT22;63058;49.424;8.420;2022-10-16T07:19:53;19.30;99.90
20856;DHT22;63058;49.424;8.420;2022-10-16T07:22:48;19.30;99.90
20856;DHT22;63058;49.424;8.420;2022-10-16T07:25:41;19.30;99.90
20856;DHT22;63058;49.424;8.420;2022-10-16T09:15:07;20.70;99.90
20856;DHT22;63058;49.424;8.420;2022-10-16T09:18:05;20.80;99.90
20856;DHT22;63058;49.424;8.420;2022-10-16T09:21:15;20.90;99.90
20856;DHT22;63058;49.424;8.420;2022-10-16T09:23:43;21.20;99.90
20856;DHT22;63058;49.424;8.420;2022-10-16T09:26:15;21.40;99.90
20856;DHT22;63058;49.424;8.420;2022-10-16T09:28:44;21.60;99.90
20856;DHT22;63058;49.424;8.420;2022-10-16T09:34:35;21.90;99.90
20856;DHT22;63058;49.424;8.420;2022-10-16T09:37:26;22.10;99.90
20856;DHT22;63058;49.424;8.420;2022-10-16T09:40:06;22.40;99.90
20856;DHT22;63058;49.424;8.420;2022-10-16T09:42:35;22.40;99.90
20856;DHT22;63058;49.424;8.420;2022-10-16T09:45:03;22.60;99.90
20856;DHT22;63058;49.424;8.420;2022-10-16T09:47:41;22.60;99.90
20856;DHT22;63058;49.424;8.420;2022-10-16T09:50:28;22.70;99.90
20856;DHT22;63058;49.424;8.420;2022-10-16T09:53:13;22.80;99.90
20856;DHT22;63058;49.424;8.420;2022-10-16T09:56:09;22.70;99.90
20856;DHT22;63058;49.424;8.420;2022-10-16T09:58:50;22.90;99.90
20856;DHT22;63058;49.424;8.420;2022-10-16T10:01:21;22.90;99.90
20856;DHT22;63058;49.424;8.420;2022-10-16T10:03:56;23.00;99.90
20856;DHT22;63058;49.424;8.420;2022-10-16T10:06:29;22.90;99.90
20856;DHT22;63058;49.424;8.420;2022-10-16T10:11:45;23.00;99.90
20856;DHT22;63058;49.424;8.420;2022-10-16T10:14:34;23.10;99.90
20856;DHT22;63058;49.424;8.420;2022-10-16T10:17:14;23.00;99.90
20856;DHT22;63058;49.424;8.420;2022-10-16T10:20:25;22.90;99.90
20856;DHT22;63058;49.424;8.420;2022-10-16T10:23:00;23.10;99.90
20856;DHT22;63058;49.424;8.420;2022-10-16T10:31:15;23.60;99.90
20856;DHT22;63058;49.424;8.420;2022-10-16T10:33:59;23.90;99.90
20856;DHT22;63058;49.424;8.420;2022-10-16T10:36:39;24.10;99.90
20856;DHT22;63058;49.424;8.420;2022-10-16T10:39:17;24.30;99.90
20856;DHT22;63058;49.424;8.420;2022-10-16T10:42:12;24.60;99.90
20856;DHT22;63058;49.424;8.420;2022-10-16T10:51:31;25.10;99.90
20856;DHT22;63058;49.424;8.420;2022-10-16T11:00:09;25.60;99.90
20856;DHT22;63058;49.424;8.420;2022-10-16T11:02:52;25.80;99.70
20856;DHT22;63058;49.424;8.420;2022-10-16T11:05:28;26.10;99.90
20856;DHT22;63058;49.424;8.420;2022-10-16T11:11:23;26.40;99.40
20856;DHT22;63058;49.424;8.420;2022-10-16T11:14:18;26.70;99.20
20856;DHT22;63058;49.424;8.420;2022-10-16T11:20:45;26.90;96.80
20856;DHT22;63058;49.424;8.420;2022-10-16T11:26:33;27.40;99.90
20856;DHT22;63058;49.424;8.420;2022-10-16T11:29:13;27.90;99.90
20856;DHT22;63058;49.424;8.420;2022-10-16T11:32:06;28.40;99.30
20856;DHT22;63058;49.424;8.420;2022-10-16T11:34:49;28.80;97.80
20856;DHT22;63058;49.424;8.420;2022-10-16T11:37:49;29.10;97.90
20856;DHT22;63058;49.424;8.420;2022-10-16T11:40:45;29.60;95.50
20856;DHT22;63058;49.424;8.420;2022-10-16T11:43:32;29.70;93.40
20856;DHT22;63058;49.424;8.420;2022-10-16T11:46:12;29.70;92.90
20856;DHT22;63058;49.424;8.420;2022-10-16T11:49:01;29.30;92.20
20856;DHT22;63058;49.424;8.420;2022-10-16T11:52:07;29.10;92.30
20856;DHT22;63058;49.424;8.420;2022-10-16T11:54:51;28.80;93.40
20856;DHT22;63058;49.424;8.420;2022-10-16T11:57:29;28.40;94.00
20856;DHT22;63058;49.424;8.420;2022-10-16T12:00:21;28.20;94.50
20856;DHT22;63058;49.424;8.420;2022-10-16T12:08:34;27.20;92.70
20856;DHT22;63058;49.424;8.420;2022-10-16T12:14:18;26.60;94.50
20856;DHT22;63058;49.424;8.420;2022-10-16T12:17:56;26.40;96.90
20856;DHT22;63058;49.424;8.420;2022-10-16T12:20:22;26.20;95.50
20856;DHT22;63058;49.424;8.420;2022-10-16T12:23:16;26.20;97.50
20856;DHT22;63058;49.424;8.420;2022-10-16T12:26:33;25.90;95.10
20856;DHT22;63058;49.424;8.420;2022-10-16T12:29:32;25.80;94.90
20856;DHT22;63058;49.424;8.420;2022-10-16T12:32:33;25.50;94.80
20856;DHT22;63058;49.424;8.420;2022-10-16T12:35:06;25.30;94.60
20856;DHT22;63058;49.424;8.420;2022-10-16T12:37:49;25.00;96.70
20856;DHT22;63058;49.424;8.420;2022-10-16T12:40:59;24.80;97.30
20856;DHT22;63058;49.424;8.420;2022-10-16T12:43:47;24.60;96.40
20856;DHT22;63058;49.424;8.420;2022-10-16T12:48:43;24.50;99.40
20856;DHT22;63058;49.424;8.420;2022-10-16T12:51:51;24.50;99.70
20856;DHT22;63058;49.424;8.420;2022-10-16T12:54:38;24.50;99.00
20856;DHT22;63058;49.424;8.420;2022-10-16T12:57:30;24.60;99.90
20856;DHT22;63058;49.424;8.420;2022-10-16T13:00:09;25.00;99.90
20856;DHT22;63058;49.424;8.420;2022-10-16T13:06:19;25.30;99.10
20856;DHT22;63058;49.424;8.420;2022-10-16T13:13:06;25.30;97.10
20856;DHT22;63058;49.424;8.420;2022-10-16T13:24:59;24.60;97.10
20856;DHT22;63058;49.424;8.420;2022-10-16T13:30:59;24.50;97.90
20856;DHT22;63058;49.424;8.420;2022-10-16T13:33:43;24.30;98.30
20856;DHT22;63058;49.424;8.420;2022-10-16T13:36:28;24.20;99.00
20856;DHT22;63058;49.424;8.420;2022-10-16T13:39:33;24.20;98.80
20856;DHT22;63058;49.424;8.420;2022-10-16T13:42:14;24.20;98.90
20856;DHT22;63058;49.424;8.420;2022-10-16T13:44:43;24.10;99.50
20856;DHT22;63058;49.424;8.420;2022-10-16T13:47:27;24.10;99.90
20856;DHT22;63058;49.424;8.420;2022-10-16T13:50:18;24.10;99.90
20856;DHT22;63058;49.424;8.420;2022-10-16T13:52:49;24.20;99.80
20856;DHT22;63058;49.424;8.420;2022-10-16T13:55:22;24.20;99.90
20856;DHT22;63058;49.424;8.420;2022-10-16T13:58:14;24.10;99.90
20856;DHT22;63058;49.424;8.420;2022-10-16T14:00:56;24.10;98.80
20856;DHT22;63058;49.424;8.420;2022-10-16T14:03:22;24.00;98.70
20856;DHT22;63058;49.424;8.420;2022-10-16T14:05:54;24.10;99.90
20856;DHT22;63058;49.424;8.420;2022-10-16T14:08:27;23.90;99.20
20856;DHT22;63058;49.424;8.420;2022-10-16T14:11:05;23.80;99.90
20856;DHT22;63058;49.424;8.420;2022-10-16T14:13:44;23.70;99.40
20856;DHT22;63058;49.424;8.420;2022-10-16T14:19:26;23.50;99.70
20856;DHT22;63058;49.424;8.420;2022-10-16T14:32:52;23.60;99.20
20856;DHT22;63058;49.424;8.420;2022-10-16T14:35:24;23.30;99.40
20856;DHT22;63058;49.424;8.420;2022-10-16T14:37:54;23.30;99.20
20856;DHT22;63058;49.424;8.420;2022-10-16T14:40:27;23.30;99.40
20856;DHT22;63058;49.424;8.420;2022-10-16T14:42:54;23.30;99.80
20856;DHT22;63058;49.424;8.420;2022-10-16T14:45:26;23.30;99.90
20856;DHT22;63058;49.424;8.420;2022-10-16T14:47:54;23.30;99.80
20856;DHT22;63058;49.424;8.420;2022-10-16T14:50:21;23.30;99.90
20856;DHT22;63058;49.424;8.420;2022-10-16T14:52:46;23.40;99.90
20856;DHT22;63058;49.424;8.420;2022-10-16T14:55:12;23.60;99.90
20856;DHT22;63058;49.424;8.420;2022-10-16T14:57:39;23.50;99.90
20856;DHT22;63058;49.424;8.420;2022-10-16T15:00:24;23.60;99.90
20856;DHT22;63058;49.424;8.420;2022-10-16T15:02:50;23.70;99.90
20856;DHT22;63058;49.424;8.420;2022-10-16T15:05:18;23.80;99.90
20856;DHT22;63058;49.424;8.420;2022-10-16T15:07:44;23.90;99.90
20856;DHT22;63058;49.424;8.420;2022-10-16T15:10:11;24.10;99.90
20856;DHT22;63058;49.424;8.420;2022-10-16T15:12:37;24.20;99.90
20856;DHT22;63058;49.424;8.420;2022-10-16T15:17:52;24.60;99.90
20856;DHT22;63058;49.424;8.420;2022-10-16T15:20:21;24.80;99.90
20856;DHT22;63058;49.424;8.420;2022-10-16T15:22:47;24.90;99.90
20856;DHT22;63058;49.424;8.420;2022-10-16T15:25:31;25.00;99.90
20856;DHT22;63058;49.424;8.420;2022-10-16T15:27:58;24.90;98.90
20856;DHT22;63058;49.424;8.420;2022-10-16T15:30:25;24.90;99.90
20856;DHT22;63058;49.424;8.420;2022-10-16T15:32:51;24.90;99.90
20856;DHT22;63058;49.424;8.420;2022-10-16T15:35:17;24.90;99.90
20856;DHT22;63058;49.424;8.420;2022-10-16T15:37:42;24.90;99.90
20856;DHT22;63058;49.424;8.420;2022-10-16T15:40:10;25.00;99.90
20856;DHT22;63058;49.424;8.420;2022-10-16T15:42:42;25.00;99.90
20856;DHT22;63058;49.424;8.420;2022-10-16T15:45:12;25.30;99.90
20856;DHT22;63058;49.424;8.420;2022-10-16T15:47:38;25.60;99.90
20856;DHT22;63058;49.424;8.420;2022-10-16T15:50:05;25.80;99.90
20856;DHT22;63058;49.424;8.420;2022-10-16T15:52:31;25.90;99.90
20856;DHT22;63058;49.424;8.420;2022-10-16T15:54:58;25.90;99.60
20856;DHT22;63058;49.424;8.420;2022-10-16T15:57:23;25.90;98.60
20856;DHT22;63058;49.424;8.420;2022-10-16T15:59:50;25.80;97.80
20856;DHT22;63058;49.424;8.420;2022-10-16T16:02:19;25.50;97.10
20856;DHT22;63058;49.424;8.420;2022-10-16T16:08:42;25.10;95.20
20856;DHT22;63058;49.424;8.420;2022-10-16T16:21:06;23.90;95.60
20856;DHT22;63058;49.424;8.420;2022-10-16T16:23:32;23.70;97.10
20856;DHT22;63058;49.424;8.420;2022-10-16T16:26:12;23.40;97.20
20856;DHT22;63058;49.424;8.420;2022-10-16T16:28:40;23.30;96.60
20856;DHT22;63058;49.424;8.420;2022-10-16T16:31:07;23.10;97.30
20856;DHT22;63058;49.424;8.420;2022-10-16T16:33:33;22.90;97.70
20856;DHT22;63058;49.424;8.420;2022-10-16T16:36:00;22.80;97.90
20856;DHT22;63058;49.424;8.420;2022-10-16T16:38:28;22.70;97.90
20856;DHT22;63058;49.424;8.420;2022-10-16T16:40:54;22.60;98.10
20856;DHT22;63058;49.424;8.420;2022-10-16T16:43:23;22.50;98.30
20856;DHT22;63058;49.424;8.420;2022-10-16T16:45:48;22.40;98.10
20856;DHT22;63058;49.424;8.420;2022-10-16T16:48:15;22.30;98.50
20856;DHT22;63058;49.424;8.420;2022-10-16T16:50:41;22.20;98.50
20856;DHT22;63058;49.424;8.420;2022-10-16T16:53:06;22.10;98.50
20856;DHT22;63058;49.424;8.420;2022-10-16T16:55:33;22.10;98.50
20856;DHT22;63058;49.424;8.420;2022-10-16T16:57:59;22.00;98.30
20856;DHT22;63058;49.424;8.420;2022-10-16T17:00:26;21.90;98.40
20856;DHT22;63058;49.424;8.420;2022-10-16T17:02:52;21.80;98.20
20856;DHT22;63058;49.424;8.420;2022-10-16T17:05:18;21.70;98.30
20856;DHT22;63058;49.424;8.420;2022-10-16T17:07:44;21.60;98.30
20856;DHT22;63058;49.424;8.420;2022-10-16T17:10:10;21.50;98.30
20856;DHT22;63058;49.424;8.420;2022-10-16T17:12:37;21.50;98.40
20856;DHT22;63058;49.424;8.420;2022-10-16T17:15:04;21.40;98.40
20856;DHT22;63058;49.424;8.420;2022-10-16T17:17:30;21.30;98.50
20856;DHT22;63058;49.424;8.420;2022-10-16T17:19:56;21.30;98.50
20856;DHT22;63058;49.424;8.420;2022-10-16T17:22:23;21.20;98.60
20856;DHT22;63058;49.424;8.420;2022-10-16T17:24:49;21.10;98.60
20856;DHT22;63058;49.424;8.420;2022-10-16T17:27:17;21.00;98.60
20856;DHT22;63058;49.424;8.420;2022-10-16T17:29:43;21.00;98.70
20856;DHT22;63058;49.424;8.420;2022-10-16T17:32:10;21.00;98.80
20856;DHT22;63058;49.424;8.420;2022-10-16T17:34:37;20.90;98.70
20856;DHT22;63058;49.424;8.420;2022-10-16T17:37:03;20.80;98.90
20856;DHT22;63058;49.424;8.420;2022-10-16T17:39:28;20.70;98.90
20856;DHT22;63058;49.424;8.420;2022-10-16T17:41:55;20.80;99.00
20856;DHT22;63058;49.424;8.420;2022-10-16T17:44:21;20.70;99.00
20856;DHT22;63058;49.424;8.420;2022-10-16T17:46:50;20.60;99.00
20856;DHT22;63058;49.424;8.420;2022-10-16T17:49:16;20.60;99.00
20856;DHT22;63058;49.424;8.420;2022-10-16T17:51:42;20.50;99.10
20856;DHT22;63058;49.424;8.420;2022-10-16T17:54:08;20.40;99.10
20856;DHT22;63058;49.424;8.420;2022-10-16T17:56:34;20.50;99.10
20856;DHT22;63058;49.424;8.420;2022-10-16T17:59:02;20.40;99.00
20856;DHT22;63058;49.424;8.420;2022-10-16T18:01:30;20.40;99.00
20856;DHT22;63058;49.424;8.420;2022-10-16T18:03:59;20.30;99.00
20856;DHT22;63058;49.424;8.420;2022-10-16T18:06:26;20.30;99.00
20856;DHT22;63058;49.424;8.420;2022-10-16T18:08:53;20.20;99.00
20856;DHT22;63058;49.424;8.420;2022-10-16T18:11:20;20.20;99.10
20856;DHT22;63058;49.424;8.420;2022-10-16T18:13:46;20.20;99.10
20856;DHT22;63058;49.424;8.420;2022-10-16T18:16:13;20.20;99.10
20856;DHT22;63058;49.424;8.420;2022-10-16T18:18:41;20.20;99.00
20856;DHT22;63058;49.424;8.420;2022-10-16T18:21:10;20.00;99.00
20856;DHT22;63058;49.424;8.420;2022-10-16T18:23:37;20.00;99.10
20856;DHT22;63058;49.424;8.420;2022-10-16T18:26:05;19.90;99.30
20856;DHT22;63058;49.424;8.420;2022-10-16T18:28:33;20.00;99.50
20856;DHT22;63058;49.424;8.420;2022-10-16T18:31:06;19.80;99.60
20856;DHT22;63058;49.424;8.420;2022-10-16T18:33:33;19.80;99.40
20856;DHT22;63058;49.424;8.420;2022-10-16T18:36:04;19.70;99.60
20856;DHT22;63058;49.424;8.420;2022-10-16T18:38:30;19.80;99.50
20856;DHT22;63058;49.424;8.420;2022-10-16T18:40:57;19.70;99.80
20856;DHT22;63058;49.424;8.420;2022-10-16T18:43:23;19.70;99.70
20856;DHT22;63058;49.424;8.420;2022-10-16T18:46:02;19.80;99.80
20856;DHT22;63058;49.424;8.420;2022-10-16T18:48:29;19.70;99.40
20856;DHT22;63058;49.424;8.420;2022-10-16T18:51:10;19.70;99.70
20856;DHT22;63058;49.424;8.420;2022-10-16T18:53:37;19.70;99.20
20856;DHT22;63058;49.424;8.420;2022-10-16T18:56:04;19.60;99.30
20856;DHT22;63058;49.424;8.420;2022-10-16T18:58:30;19.60;99.30
20856;DHT22;63058;49.424;8.420;2022-10-16T19:00:55;19.60;99.30
20856;DHT22;63058;49.424;8.420;2022-10-16T19:03:21;19.50;99.30
20856;DHT22;63058;49.424;8.420;2022-10-16T19:05:46;19.40;99.40
20856;DHT22;63058;49.424;8.420;2022-10-16T19:08:13;19.40;99.50
20856;DHT22;63058;49.424;8.420;2022-10-16T19:10:40;19.30;99.60
20856;DHT22;63058;49.424;8.420;2022-10-16T19:13:08;19.40;99.70
20856;DHT22;63058;49.424;8.420;2022-10-16T19:15:40;19.40;99.80
20856;DHT22;63058;49.424;8.420;2022-10-16T19:18:07;19.30;99.60
20856;DHT22;63058;49.424;8.420;2022-10-16T19:20:33;19.40;99.80
20856;DHT22;63058;49.424;8.420;2022-10-16T19:22:59;19.30;99.70
20856;DHT22;63058;49.424;8.420;2022-10-16T19:25:25;19.30;99.70
20856;DHT22;63058;49.424;8.420;2022-10-16T19:27:53;19.30;99.70
20856;DHT22;63058;49.424;8.420;2022-10-16T19:30:19;19.30;99.70
20856;DHT22;63058;49.424;8.420;2022-10-16T19:32:45;19.20;99.70
20856;DHT22;63058;49.424;8.420;2022-10-16T19:35:14;19.30;99.70
20856;DHT22;63058;49.424;8.420;2022-10-16T19:37:39;19.10;99.70
20856;DHT22;63058;49.424;8.420;2022-10-16T19:40:05;19.10;99.80
20856;DHT22;63058;49.424;8.420;2022-10-16T19:42:32;19.00;99.80
20856;DHT22;63058;49.424;8.420;2022-10-16T19:45:00;19.00;99.90
20856;DHT22;63058;49.424;8.420;2022-10-16T19:47:26;19.00;99.90
20856;DHT22;63058;49.424;8.420;2022-10-16T19:49:51;19.00;99.90
20856;DHT22;63058;49.424;8.420;2022-10-16T19:52:17;19.00;99.90
20856;DHT22;63058;49.424;8.420;2022-10-16T19:54:43;19.00;99.90
20856;DHT22;63058;49.424;8.420;2022-10-16T19:57:08;18.90;99.90
20856;DHT22;63058;49.424;8.420;2022-10-16T19:59:34;18.80;99.90
20856;DHT22;63058;49.424;8.420;2022-10-16T20:02:00;18.90;99.90
20856;DHT22;63058;49.424;8.420;2022-10-16T20:04:26;18.90;99.90
20856;DHT22;63058;49.424;8.420;2022-10-16T20:06:51;18.90;99.90
20856;DHT22;63058;49.424;8.420;2022-10-16T20:09:18;18.90;99.90
20856;DHT22;63058;49.424;8.420;2022-10-16T20:11:44;18.90;99.90
20856;DHT22;63058;49.424;8.420;2022-10-16T20:14:10;19.00;99.90